Eldorado, Illinois
Current Conditions -  °F | °C
As of 5:55 AM on Monday 22 Dec 2014 (Local Time) from KHSB Reporting Station
Overcast Overcast  
Wind Chill: 33°   Ceiling: 9000
Heat Index: 39°   Visibility: 10mi
Dew Point: 33°   Wind: 8mph
Humidity: 79%   Direction: 100°E
Pressure: 29.88"   Gusts: NA
Location:  37.81°N, 88.44°W
Report Text: KHSB 221155Z AUTO 10007KT 10SM OVC090 04/01 A2988 RMK AO2 7//// T00380005 10040 20026
Loading
Personal Weather Stations






























Interactive Weather Map New forecast layout! Learn more

10-Day Weather Forecast

Advertisements
Track Severe Weather on mobile